Abbeville, Georgia
Current Conditions -  °F | °C
As of 8:15 AM on Sunday 21 Dec 2014 (Local Time) from KEZM Reporting Station
Haze Haze  
Wind Chill: 10°   Ceiling: 600
Heat Index: 10°   Visibility: 5mi
Dew Point: 10°   Wind: 6mph
Humidity: 100%   Direction: 50°NE
Pressure: 30.21"   Gusts: NA
Location:  31.99°N, 83.31°W
Report Text: KEZM 211315Z AUTO 05005KT 5SM BR OVC006 10/10 A3021 RMK AO2 T01000100
Loading
Personal Weather Stations






























Interactive Weather Map New forecast layout! Learn more

10-Day Weather Forecast

Advertisements
Track Severe Weather on mobile